Time;durP1;ratioP1;P1;durP2;ratioP2;P2;SDS_P1;SDS_P2;PMS_P1;PMS_P2;Temp;Humidity;BMP_temperature;BMP_pressure;BME280_temperature;BME280_humidity;BME280_pressure;Samples;Min_cycle;Max_cycle;Signal;HPM_P1;HPM_P2
2021/05/24 00:00:37;;;;;;;4.57;1.73;;;10.00;99.90;;;;;;5034189;28;20108;-55
2021/05/24 00:03:04;;;;;;;4.70;1.50;;;10.00;99.90;;;;;;5021878;28;20033;-57
2021/05/24 00:05:32;;;;;;;4.93;1.90;;;10.00;99.90;;;;;;5033686;28;20052;-55
2021/05/24 00:07:58;;;;;;;9.23;1.88;;;9.90;99.90;;;;;;5035081;28;20025;-55
2021/05/24 00:10:26;;;;;;;5.22;1.73;;;9.90;99.90;;;;;;5032029;28;20633;-54
2021/05/24 00:12:54;;;;;;;7.93;2.90;;;9.90;99.90;;;;;;5032610;28;20037;-56
2021/05/24 00:15:27;;;;;;;5.22;1.90;;;9.90;99.90;;;;;;5033613;28;20433;-56
2021/05/24 00:17:53;;;;;;;5.20;1.63;;;9.90;99.90;;;;;;5026502;28;20069;-57
2021/05/24 00:20:22;;;;;;;3.78;1.67;;;9.80;99.90;;;;;;5031550;28;20053;-56
2021/05/24 00:22:48;;;;;;;3.47;1.50;;;9.90;99.90;;;;;;5027383;28;20029;-57
2021/05/24 00:25:14;;;;;;;5.90;1.27;;;9.90;99.90;;;;;;5019329;28;20036;-58
2021/05/24 00:27:41;;;;;;;5.28;1.80;;;9.80;99.90;;;;;;5031146;28;20029;-57
2021/05/24 00:30:07;;;;;;;5.22;1.38;;;9.80;99.90;;;;;;5037303;28;20033;-58
2021/05/24 00:32:33;;;;;;;4.47;2.08;;;9.80;99.90;;;;;;5031340;28;20029;-58
2021/05/24 00:34:59;;;;;;;3.78;1.73;;;9.80;99.90;;;;;;5029277;28;20747;-58
2021/05/24 00:37:24;;;;;;;4.07;1.60;;;9.80;99.90;;;;;;5036665;28;20083;-57
2021/05/24 00:39:50;;;;;;;4.60;1.70;;;9.90;99.90;;;;;;5032982;28;20037;-56
2021/05/24 00:42:16;;;;;;;4.88;1.38;;;9.90;99.90;;;;;;5036807;28;20029;-58
2021/05/24 00:44:42;;;;;;;3.08;1.45;;;9.90;99.90;;;;;;5033094;28;20037;-58
2021/05/24 00:47:08;;;;;;;7.60;1.75;;;9.90;99.90;;;;;;5040805;28;20556;-55
2021/05/24 00:49:34;;;;;;;7.47;1.83;;;9.90;99.90;;;;;;5030299;28;20071;-57
2021/05/24 00:51:59;;;;;;;7.90;1.60;;;9.80;99.90;;;;;;5037571;28;20029;-57
2021/05/24 00:54:27;;;;;;;5.47;1.58;;;9.80;99.90;;;;;;5029166;28;20036;-56
2021/05/24 00:56:54;;;;;;;3.83;2.25;;;9.80;99.90;;;;;;5021928;28;20113;-56
2021/05/24 00:59:21;;;;;;;4.70;1.73;;;9.80;99.90;;;;;;5028432;28;20542;-57
2021/05/24 01:01:47;;;;;;;4.70;2.08;;;9.80;99.90;;;;;;5031204;28;20108;-56
2021/05/24 01:04:15;;;;;;;5.30;3.13;;;9.80;99.90;;;;;;5028164;28;20487;-58
2021/05/24 01:06:41;;;;;;;6.38;1.83;;;9.70;99.90;;;;;;5034016;28;20037;-57
2021/05/24 01:09:06;;;;;;;9.18;2.25;;;9.70;99.90;;;;;;5029782;28;20105;-58
2021/05/24 01:11:33;;;;;;;6.18;2.35;;;9.80;99.90;;;;;;5030699;28;20367;-57
2021/05/24 01:14:00;;;;;;;7.47;2.40;;;9.80;99.90;;;;;;5032683;28;20446;-57
2021/05/24 01:16:26;;;;;;;9.60;2.45;;;9.80;99.90;;;;;;5036515;28;20049;-57
2021/05/24 01:18:52;;;;;;;9.75;2.45;;;9.80;99.90;;;;;;5031625;28;20425;-57
2021/05/24 01:21:18;;;;;;;6.88;2.80;;;9.80;99.90;;;;;;5034617;28;20521;-56
2021/05/24 01:23:45;;;;;;;6.30;3.13;;;9.90;99.90;;;;;;5031239;28;20426;-58
2021/05/24 01:26:13;;;;;;;10.68;3.15;;;9.90;99.90;;;;;;5035336;28;20030;-57
2021/05/24 01:28:39;;;;;;;7.70;3.33;;;9.90;99.90;;;;;;5029522;28;20064;-57
2021/05/24 01:31:05;;;;;;;6.32;2.63;;;9.90;99.90;;;;;;5038029;28;20060;-58
2021/05/24 01:33:33;;;;;;;9.30;4.10;;;9.90;99.90;;;;;;5035633;28;20084;-56
2021/05/24 01:36:00;;;;;;;7.00;2.88;;;9.90;99.90;;;;;;5027254;28;20032;-55
2021/05/24 01:38:26;;;;;;;5.82;2.55;;;9.90;99.90;;;;;;5029706;28;20088;-58
2021/05/24 01:40:52;;;;;;;10.38;3.15;;;9.80;99.90;;;;;;5035674;28;20365;-55
2021/05/24 01:43:19;;;;;;;4.10;1.75;;;9.90;99.90;;;;;;5030603;28;20029;-57
2021/05/24 01:45:45;;;;;;;4.13;2.10;;;9.80;99.90;;;;;;5035085;28;20049;-58
2021/05/24 01:48:11;;;;;;;5.78;2.83;;;9.80;99.90;;;;;;5033984;28;20029;-57
2021/05/24 01:50:38;;;;;;;6.50;1.80;;;9.80;99.90;;;;;;5034821;28;20503;-56
2021/05/24 01:53:04;;;;;;;8.85;2.05;;;9.70;99.90;;;;;;5031387;28;20037;-57
2021/05/24 01:55:29;;;;;;;6.22;1.80;;;9.70;99.90;;;;;;5036371;28;20499;-55
2021/05/24 01:57:55;;;;;;;9.75;2.38;;;9.70;99.90;;;;;;5031064;28;20029;-55
2021/05/24 02:00:23;;;;;;;3.83;1.70;;;9.60;99.90;;;;;;5033154;28;20021;-54
2021/05/24 02:02:50;;;;;;;3.03;1.77;;;9.60;99.90;;;;;;5038684;28;20025;-55
2021/05/24 02:05:17;;;;;;;7.55;2.10;;;9.60;99.90;;;;;;5033302;28;20028;-56
2021/05/24 02:07:44;;;;;;;10.32;2.33;;;9.50;99.90;;;;;;5036105;28;20044;-55
2021/05/24 02:10:13;;;;;;;5.43;2.55;;;9.50;99.90;;;;;;5033218;28;20041;-57
2021/05/24 02:12:39;;;;;;;3.88;2.03;;;9.50;99.90;;;;;;5028633;28;20622;-57
2021/05/24 02:15:07;;;;;;;5.70;2.00;;;9.50;99.90;;;;;;5032410;28;20076;-54
2021/05/24 02:17:33;;;;;;;4.43;1.77;;;9.50;99.90;;;;;;5037747;28;20034;-56
2021/05/24 02:19:58;;;;;;;5.80;1.38;;;9.40;99.90;;;;;;5033131;28;20036;-54
2021/05/24 02:22:24;;;;;;;4.60;1.45;;;9.40;99.90;;;;;;5029831;28;20037;-57
2021/05/24 02:24:50;;;;;;;8.43;2.00;;;9.40;99.90;;;;;;5030003;28;20096;-57
2021/05/24 02:27:15;;;;;;;5.40;1.45;;;9.40;99.90;;;;;;5029201;28;20035;-57
2021/05/24 02:29:41;;;;;;;4.63;1.42;;;9.40;99.90;;;;;;5032827;28;20044;-55
2021/05/24 02:32:08;;;;;;;6.18;1.75;;;9.40;99.90;;;;;;5027566;28;20044;-54
2021/05/24 02:34:34;;;;;;;7.78;1.70;;;9.50;99.90;;;;;;5034162;28;20026;-57
2021/05/24 02:37:00;;;;;;;6.53;1.50;;;9.50;99.90;;;;;;5040841;28;20036;-54
2021/05/24 02:39:25;;;;;;;3.20;1.23;;;9.50;99.90;;;;;;5030530;28;20025;-54
2021/05/24 02:41:51;;;;;;;4.65;1.50;;;9.40;99.90;;;;;;5040078;28;20112;-54
2021/05/24 02:44:17;;;;;;;8.23;1.40;;;9.40;99.90;;;;;;5039228;28;20094;-55
2021/05/24 02:46:42;;;;;;;4.63;1.30;;;9.40;99.90;;;;;;5030858;28;20460;-56
2021/05/24 02:49:09;;;;;;;1.70;1.15;;;9.40;99.90;;;;;;5036488;28;20403;-54
2021/05/24 02:51:35;;;;;;;2.63;1.40;;;9.30;99.90;;;;;;5042525;28;20025;-55
2021/05/24 02:54:02;;;;;;;7.60;1.60;;;9.30;99.90;;;;;;5033939;28;20025;-57
2021/05/24 02:56:28;;;;;;;9.05;1.50;;;9.30;99.90;;;;;;5033819;28;20029;-55
2021/05/24 02:58:54;;;;;;;5.65;1.50;;;9.40;99.90;;;;;;5041077;28;20025;-54
2021/05/24 03:01:21;;;;;;;4.15;1.33;;;9.40;99.90;;;;;;5042818;28;20047;-57
2021/05/24 03:03:53;;;;;;;3.30;1.58;;;9.40;99.90;;;;;;5032129;28;20109;-56
2021/05/24 03:06:18;;;;;;;10.15;1.50;;;9.50;99.90;;;;;;5039712;28;20139;-57
2021/05/24 03:08:44;;;;;;;3.17;1.30;;;9.60;99.90;;;;;;5033331;28;20072;-57
2021/05/24 03:11:10;;;;;;;4.63;1.17;;;9.70;99.90;;;;;;5034927;28;20033;-58
2021/05/24 03:13:36;;;;;;;4.53;1.40;;;9.80;99.90;;;;;;5037003;28;20032;-58
2021/05/24 03:16:01;;;;;;;5.22;1.60;;;9.90;99.90;;;;;;5033282;28;20021;-57
2021/05/24 03:18:27;;;;;;;2.08;1.20;;;9.90;99.90;;;;;;5028147;28;20460;-58
2021/05/24 03:20:52;;;;;;;3.83;1.55;;;10.00;99.90;;;;;;5037773;28;20029;-57
2021/05/24 03:25:43;;;;;;;3.63;1.52;;;10.10;99.90;;;;;;5084002;22;20410;-54
2021/05/24 03:28:09;;;;;;;2.10;1.20;;;10.20;99.90;;;;;;5063529;28;20020;-53
2021/05/24 03:30:34;;;;;;;4.43;1.20;;;10.20;99.90;;;;;;5060878;28;20111;-56
2021/05/24 03:33:00;;;;;;;2.00;1.17;;;10.20;99.90;;;;;;5055030;28;20064;-53
2021/05/24 03:35:25;;;;;;;1.77;1.02;;;10.30;99.90;;;;;;5059334;28;20024;-53
2021/05/24 03:37:51;;;;;;;5.47;1.40;;;10.30;99.90;;;;;;5069509;28;20032;-52
2021/05/24 03:40:17;;;;;;;3.78;1.40;;;10.40;99.90;;;;;;5058742;28;20077;-55
2021/05/24 03:42:44;;;;;;;4.88;1.02;;;10.40;99.90;;;;;;5062933;28;20041;-54
2021/05/24 03:45:14;;;;;;;3.35;1.25;;;10.50;99.90;;;;;;5067917;28;20097;-55
2021/05/24 03:47:40;;;;;;;5.30;1.33;;;10.60;99.90;;;;;;5069216;28;20032;-56
2021/05/24 03:50:06;;;;;;;4.78;1.55;;;10.60;99.90;;;;;;5061750;28;20536;-55
2021/05/24 03:52:32;;;;;;;5.30;0.80;;;10.60;99.90;;;;;;5068002;28;20389;-55
2021/05/24 03:54:57;;;;;;;4.57;0.90;;;10.70;99.90;;;;;;5068237;28;20028;-56
2021/05/24 03:57:23;;;;;;;5.78;1.13;;;10.70;99.90;;;;;;5063867;28;20749;-57
2021/05/24 03:59:49;;;;;;;6.20;2.47;;;10.80;99.90;;;;;;5056744;28;20406;-56
2021/05/24 04:02:15;;;;;;;3.72;1.42;;;10.80;99.90;;;;;;5069600;28;20056;-53
2021/05/24 04:04:41;;;;;;;2.30;1.00;;;10.90;99.90;;;;;;5062830;28;20120;-55
2021/05/24 04:07:09;;;;;;;2.65;1.20;;;11.00;99.90;;;;;;5062088;28;20024;-55
2021/05/24 04:09:34;;;;;;;3.83;1.13;;;11.10;99.90;;;;;;5065974;28;20082;-56
2021/05/24 04:12:00;;;;;;;4.15;1.77;;;11.10;99.90;;;;;;5057638;28;20107;-55
2021/05/24 04:14:26;;;;;;;3.33;0.93;;;11.20;99.90;;;;;;5060755;28;20020;-55
2021/05/24 04:16:51;;;;;;;2.92;0.70;;;11.20;99.90;;;;;;5064398;28;20127;-55
2021/05/24 04:19:17;;;;;;;1.63;0.90;;;11.30;99.90;;;;;;5067032;28;20021;-55
2021/05/24 04:21:45;;;;;;;1.52;0.98;;;11.30;99.90;;;;;;5066717;28;20027;-55
2021/05/24 04:24:12;;;;;;;3.35;0.90;;;11.40;99.90;;;;;;5060419;28;20036;-55
2021/05/24 04:26:39;;;;;;;6.05;1.00;;;11.40;99.90;;;;;;5063898;28;20025;-54
2021/05/24 04:29:05;;;;;;;4.95;0.93;;;11.40;99.90;;;;;;5061232;28;20017;-53
2021/05/24 04:31:31;;;;;;;4.03;1.30;;;11.50;99.90;;;;;;5068766;28;20034;-56
2021/05/24 04:33:57;;;;;;;1.52;0.63;;;11.50;99.90;;;;;;5069174;28;20021;-55
2021/05/24 04:36:22;;;;;;;4.78;1.40;;;11.60;99.90;;;;;;5064863;28;20161;-52
2021/05/24 04:38:48;;;;;;;3.55;0.90;;;11.60;99.90;;;;;;5066696;28;20103;-53
2021/05/24 04:41:13;;;;;;;2.60;1.27;;;11.70;99.90;;;;;;5045372;28;20024;-54
2021/05/24 04:43:41;;;;;;;3.40;0.90;;;11.80;99.90;;;;;;5061042;28;20029;-53
2021/05/24 04:46:07;;;;;;;2.55;0.82;;;11.80;99.90;;;;;;5065545;28;20370;-52
2021/05/24 04:48:34;;;;;;;2.38;0.85;;;11.80;99.90;;;;;;5066535;28;20033;-55
2021/05/24 04:51:01;;;;;;;3.35;1.08;;;11.90;99.90;;;;;;5063510;28;20517;-54
2021/05/24 04:53:27;;;;;;;3.35;0.80;;;11.90;99.90;;;;;;5066841;28;20114;-54
2021/05/24 04:55:52;;;;;;;4.32;1.20;;;11.90;99.90;;;;;;5060981;28;20431;-56
2021/05/24 04:58:19;;;;;;;4.22;0.90;;;11.90;99.90;;;;;;5065089;28;20051;-58
2021/05/24 05:00:46;;;;;;;3.60;1.05;;;12.00;99.90;;;;;;5045591;28;20390;-54
2021/05/24 05:03:11;;;;;;;2.78;1.00;;;12.00;99.90;;;;;;5058421;28;20047;-54
2021/05/24 05:05:37;;;;;;;4.95;0.80;;;12.00;99.90;;;;;;5069014;28;20514;-54
2021/05/24 05:08:03;;;;;;;5.20;0.90;;;12.00;99.90;;;;;;5065048;28;20102;-51
2021/05/24 05:10:28;;;;;;;2.70;1.00;;;12.00;99.90;;;;;;5068851;28;20047;-55
2021/05/24 05:12:54;;;;;;;1.80;1.38;;;12.00;99.90;;;;;;5064833;28;20046;-55
2021/05/24 05:15:19;;;;;;;4.30;1.17;;;12.00;99.90;;;;;;5061238;28;20556;-55
2021/05/24 05:17:45;;;;;;;3.45;0.98;;;12.00;99.90;;;;;;5061857;28;20559;-51
2021/05/24 05:20:11;;;;;;;1.73;0.82;;;12.00;99.90;;;;;;5061039;28;20440;-56
2021/05/24 05:22:37;;;;;;;5.18;1.08;;;12.10;99.90;;;;;;5065905;28;20082;-52
2021/05/24 05:25:04;;;;;;;0.98;0.65;;;12.10;99.90;;;;;;5067781;28;20036;-54
2021/05/24 05:27:30;;;;;;;2.15;0.95;;;12.20;99.90;;;;;;5067848;28;20033;-54
2021/05/24 05:29:55;;;;;;;2.65;0.98;;;12.20;99.90;;;;;;5058729;28;20032;-55
2021/05/24 05:32:21;;;;;;;6.30;1.85;;;12.30;99.90;;;;;;5053695;28;20067;-55
2021/05/24 05:34:47;;;;;;;7.90;1.83;;;12.40;99.90;;;;;;5062902;28;20062;-56
2021/05/24 05:37:13;;;;;;;4.88;1.13;;;12.50;99.90;;;;;;5062799;28;20111;-54
2021/05/24 05:39:38;;;;;;;4.93;0.82;;;12.60;99.90;;;;;;5057197;28;20506;-55
2021/05/24 05:42:04;;;;;;;3.70;0.80;;;12.70;99.90;;;;;;5064761;28;20496;-55
2021/05/24 05:44:30;;;;;;;7.38;1.02;;;12.80;99.90;;;;;;5064755;28;20075;-53
2021/05/24 05:46:55;;;;;;;4.50;0.90;;;12.90;99.90;;;;;;5066923;28;20028;-52
2021/05/24 05:49:21;;;;;;;2.42;0.80;;;13.00;99.90;;;;;;5054947;28;20040;-53
2021/05/24 05:51:47;;;;;;;5.25;1.00;;;13.10;99.90;;;;;;5060385;28;20029;-52
2021/05/24 05:54:13;;;;;;;3.65;1.08;;;13.20;99.90;;;;;;5066803;28;20032;-54
2021/05/24 05:56:38;;;;;;;3.28;0.98;;;13.30;99.90;;;;;;5056198;28;20112;-51
2021/05/24 05:59:04;;;;;;;4.20;1.30;;;13.30;99.90;;;;;;5062491;28;20146;-52
2021/05/24 06:01:30;;;;;;;2.65;0.90;;;13.30;99.90;;;;;;5061889;28;20032;-53
2021/05/24 06:03:57;;;;;;;2.25;1.15;;;13.20;99.90;;;;;;5057854;28;20051;-53
2021/05/24 06:06:23;;;;;;;2.60;0.90;;;13.20;99.90;;;;;;5061311;28;20064;-52
2021/05/24 06:08:48;;;;;;;2.17;0.60;;;13.20;99.90;;;;;;5071081;28;20056;-51
2021/05/24 06:11:14;;;;;;;3.72;0.85;;;13.10;99.90;;;;;;5067238;28;20025;-56
2021/05/24 06:13:39;;;;;;;0.98;0.73;;;13.00;99.90;;;;;;5069872;28;20036;-55
2021/05/24 06:16:06;;;;;;;3.45;0.73;;;13.00;99.90;;;;;;5066950;28;20028;-52
2021/05/24 06:18:31;;;;;;;3.10;0.90;;;13.00;99.90;;;;;;5072297;28;20032;-54
2021/05/24 06:20:57;;;;;;;4.00;0.98;;;13.10;99.90;;;;;;5070362;28;20035;-55
2021/05/24 06:23:22;;;;;;;1.77;1.02;;;13.30;99.90;;;;;;5064507;28;20060;-54
2021/05/24 06:25:48;;;;;;;4.75;0.65;;;13.30;99.90;;;;;;5071244;28;20113;-55
2021/05/24 06:28:14;;;;;;;3.53;1.15;;;13.40;99.90;;;;;;5066061;28;20033;-52
2021/05/24 06:30:40;;;;;;;3.03;0.70;;;13.50;99.90;;;;;;5062663;28;20025;-53
2021/05/24 06:33:05;;;;;;;2.97;1.60;;;13.70;99.90;;;;;;5069687;28;20398;-55
2021/05/24 06:35:31;;;;;;;3.25;0.93;;;13.70;99.90;;;;;;5069678;28;20444;-54
2021/05/24 06:37:57;;;;;;;3.65;0.80;;;13.80;99.90;;;;;;5063829;28;20191;-52
2021/05/24 06:40:22;;;;;;;2.70;0.85;;;13.90;99.90;;;;;;5067512;28;20062;-52
2021/05/24 06:42:48;;;;;;;2.03;0.60;;;14.00;99.90;;;;;;5057393;28;20056;-51
2021/05/24 06:45:16;;;;;;;3.60;0.80;;;14.10;99.90;;;;;;5061368;28;20033;-55
2021/05/24 06:47:42;;;;;;;6.18;1.10;;;14.20;99.90;;;;;;5065605;28;20631;-52
2021/05/24 06:50:08;;;;;;;5.72;0.80;;;14.30;99.90;;;;;;5064194;28;20038;-53
2021/05/24 06:52:33;;;;;;;2.00;0.80;;;14.40;99.90;;;;;;5063429;28;20036;-51
2021/05/24 06:55:00;;;;;;;3.17;0.70;;;14.50;99.90;;;;;;5065685;28;20021;-51
2021/05/24 06:57:26;;;;;;;3.95;0.60;;;14.60;99.90;;;;;;5069518;28;20092;-53
2021/05/24 06:59:51;;;;;;;4.35;0.73;;;14.70;99.90;;;;;;5067027;28;20112;-56
2021/05/24 07:02:17;;;;;;;5.97;0.80;;;14.70;99.90;;;;;;5063602;28;20051;-54
2021/05/24 07:04:46;;;;;;;1.95;0.70;;;14.80;99.90;;;;;;5061552;28;20029;-54
2021/05/24 07:07:12;;;;;;;3.85;0.80;;;14.90;99.90;;;;;;5066134;28;20116;-54
2021/05/24 07:09:38;;;;;;;2.58;0.70;;;15.10;99.90;;;;;;5065138;28;20115;-54
2021/05/24 07:12:05;;;;;;;4.93;1.40;;;15.10;99.90;;;;;;5063802;28;20028;-53
2021/05/24 07:14:30;;;;;;;2.75;0.70;;;15.30;99.90;;;;;;5059260;28;20028;-52
2021/05/24 07:16:56;;;;;;;2.75;0.90;;;15.30;99.90;;;;;;5065379;28;20021;-54
2021/05/24 07:19:22;;;;;;;5.95;0.98;;;15.40;99.90;;;;;;5060300;28;20051;-52
2021/05/24 07:21:47;;;;;;;5.60;0.80;;;15.50;99.90;;;;;;5067174;28;20032;-52
2021/05/24 07:24:13;;;;;;;4.07;1.30;;;15.60;99.90;;;;;;5061755;28;20021;-52
2021/05/24 07:26:39;;;;;;;6.03;1.05;;;15.70;99.90;;;;;;5065563;28;20089;-54
2021/05/24 07:29:05;;;;;;;4.45;0.80;;;15.80;99.90;;;;;;5066629;28;20025;-56
2021/05/24 07:31:30;;;;;;;1.35;0.90;;;15.80;99.90;;;;;;5060387;28;20146;-56
2021/05/24 07:33:56;;;;;;;3.15;1.00;;;15.80;99.90;;;;;;5067528;28;20103;-52
2021/05/24 07:36:21;;;;;;;2.08;0.70;;;15.90;99.90;;;;;;5066315;28;20048;-55
2021/05/24 07:38:47;;;;;;;5.32;0.70;;;16.00;99.90;;;;;;5060146;28;20033;-53
2021/05/24 07:41:12;;;;;;;8.32;2.58;;;16.10;99.90;;;;;;5065956;28;20028;-51
2021/05/24 07:43:38;;;;;;;4.03;0.75;;;16.30;99.90;;;;;;5064819;28;20159;-52
2021/05/24 07:46:04;;;;;;;5.53;0.82;;;16.50;99.90;;;;;;5061610;28;20032;-53
2021/05/24 07:48:30;;;;;;;2.03;0.63;;;16.60;99.90;;;;;;5063587;28;20032;-53
2021/05/24 07:50:55;;;;;;;4.53;1.00;;;16.70;99.90;;;;;;5062182;28;20576;-53
2021/05/24 07:53:21;;;;;;;1.40;0.70;;;16.80;99.90;;;;;;5061298;28;20059;-51
2021/05/24 07:55:46;;;;;;;5.45;0.80;;;16.80;99.90;;;;;;5059536;28;20044;-53
2021/05/24 07:58:12;;;;;;;3.45;1.10;;;16.90;99.90;;;;;;5058443;28;20059;-55
2021/05/24 08:00:38;;;;;;;2.55;0.80;;;17.00;99.90;;;;;;5060800;28;20029;-52
2021/05/24 08:03:03;;;;;;;2.97;0.77;;;17.10;99.90;;;;;;5062044;28;20616;-55
2021/05/24 08:05:29;;;;;;;2.83;0.75;;;17.30;99.90;;;;;;5063773;28;20029;-52
2021/05/24 08:07:54;;;;;;;2.53;0.80;;;17.40;99.90;;;;;;5063242;28;20082;-51
2021/05/24 08:10:21;;;;;;;6.07;0.82;;;17.30;99.90;;;;;;5040859;28;20038;-51
2021/05/24 08:12:47;;;;;;;1.73;0.70;;;17.30;99.90;;;;;;5059545;28;20050;-52
2021/05/24 08:15:22;;;;;;;2.88;1.20;;;17.20;99.90;;;;;;5060587;28;20033;-51
2021/05/24 08:17:47;;;;;;;7.55;0.93;;;17.10;99.90;;;;;;5060925;28;20040;-54
2021/05/24 08:20:15;;;;;;;2.05;0.60;;;17.00;99.90;;;;;;5059409;28;20040;-51
2021/05/24 08:22:41;;;;;;;1.75;0.73;;;16.90;99.90;;;;;;5058822;28;20055;-52
2021/05/24 08:25:08;;;;;;;3.97;0.90;;;16.80;99.90;;;;;;5062778;28;20526;-52
2021/05/24 08:27:35;;;;;;;2.17;0.70;;;16.80;99.90;;;;;;5056692;28;20037;-51
2021/05/24 08:30:04;;;;;;;3.30;0.70;;;16.80;99.90;;;;;;5061924;28;20111;-52
2021/05/24 08:32:29;;;;;;;6.00;1.00;;;16.80;99.90;;;;;;5058000;28;20475;-52
2021/05/24 08:34:55;;;;;;;4.60;0.70;;;16.90;99.90;;;;;;5060803;28;20032;-51
2021/05/24 08:37:20;;;;;;;4.63;1.17;;;16.90;99.90;;;;;;5041835;28;20021;-55
2021/05/24 08:39:46;;;;;;;2.65;0.80;;;17.00;99.90;;;;;;5059123;28;20028;-51
2021/05/24 08:42:12;;;;;;;5.47;0.98;;;17.00;99.90;;;;;;5058210;28;20035;-51
2021/05/24 08:44:38;;;;;;;3.15;1.00;;;17.10;99.90;;;;;;5061373;28;20387;-53
2021/05/24 08:47:04;;;;;;;2.10;0.82;;;17.10;99.90;;;;;;5056883;28;20052;-52
2021/05/24 08:49:30;;;;;;;2.50;0.80;;;17.10;99.90;;;;;;5062064;28;20489;-51
2021/05/24 08:51:57;;;;;;;4.32;0.73;;;17.10;99.90;;;;;;5059794;28;20025;-54
2021/05/24 08:54:23;;;;;;;2.10;0.60;;;17.10;99.90;;;;;;5061695;28;20149;-52
2021/05/24 08:56:48;;;;;;;3.63;0.70;;;17.10;99.90;;;;;;5062540;28;20029;-54
2021/05/24 08:59:14;;;;;;;4.28;0.90;;;17.00;99.90;;;;;;5054634;28;20021;-52
2021/05/24 09:01:40;;;;;;;3.65;0.82;;;17.00;99.90;;;;;;5062357;28;20035;-52
2021/05/24 09:04:06;;;;;;;3.95;0.80;;;17.00;99.90;;;;;;5060889;28;20027;-53
2021/05/24 09:06:43;;;;;;;5.93;0.90;;;17.00;99.90;;;;;;5063373;28;20066;-54
2021/05/24 09:09:18;;;;;;;2.53;0.70;;;17.00;99.90;;;;;;5058375;28;20040;-57
2021/05/24 09:11:46;;;;;;;3.20;1.05;;;17.00;99.90;;;;;;5059768;28;20107;-56
2021/05/24 09:14:16;;;;;;;1.92;0.80;;;17.00;99.90;;;;;;5062082;28;20025;-56
2021/05/24 09:16:41;;;;;;;4.55;0.68;;;17.00;99.90;;;;;;5064214;28;20029;-54
2021/05/24 09:19:19;;;;;;;3.70;0.60;;;17.00;99.90;;;;;;5059221;28;20047;-54
2021/05/24 09:21:51;;;;;;;2.60;0.95;;;16.90;99.90;;;;;;5054769;28;20074;-51
2021/05/24 09:24:24;;;;;;;2.47;0.82;;;17.00;99.90;;;;;;5058934;28;20107;-51
2021/05/24 09:26:50;;;;;;;6.47;0.73;;;17.00;99.90;;;;;;5061695;28;20482;-52
2021/05/24 09:29:22;;;;;;;4.90;0.95;;;17.10;99.90;;;;;;5063298;28;20059;-56
2021/05/24 09:31:47;;;;;;;3.40;0.90;;;17.10;99.90;;;;;;5054929;28;20074;-51
2021/05/24 09:34:20;;;;;;;4.13;0.90;;;17.10;99.90;;;;;;5061806;28;20437;-53
2021/05/24 09:36:58;;;;;;;9.75;0.90;;;17.20;99.90;;;;;;5065280;28;20154;-51
2021/05/24 09:39:32;;;;;;;6.18;1.10;;;17.20;99.90;;;;;;5063648;28;20029;-54
2021/05/24 09:42:01;;;;;;;5.97;1.00;;;17.30;99.90;;;;;;5058004;28;20021;-54
2021/05/24 09:44:32;;;;;;;5.45;1.02;;;17.30;99.90;;;;;;5061768;28;20108;-52
2021/05/24 09:46:57;;;;;;;3.00;0.95;;;17.20;99.90;;;;;;5064190;28;20048;-55
2021/05/24 09:49:30;;;;;;;3.58;0.68;;;17.20;99.90;;;;;;5059045;28;20049;-55
2021/05/24 09:51:58;;;;;;;2.97;0.85;;;17.20;99.90;;;;;;5056012;28;20028;-51
2021/05/24 09:54:33;;;;;;;7.28;0.70;;;17.10;99.90;;;;;;5056234;28;20028;-56
2021/05/24 09:57:04;;;;;;;5.25;0.80;;;17.10;99.90;;;;;;5059234;28;20547;-54
2021/05/24 09:59:31;;;;;;;2.70;0.63;;;17.10;99.90;;;;;;5061502;28;20229;-55
2021/05/24 10:01:58;;;;;;;4.80;0.90;;;17.00;99.90;;;;;;5063768;28;20499;-56
2021/05/24 10:04:26;;;;;;;2.50;0.82;;;17.00;99.90;;;;;;5055899;28;21055;-55
2021/05/24 10:06:54;;;;;;;5.93;0.82;;;17.00;99.90;;;;;;5063582;28;20074;-57
2021/05/24 10:09:20;;;;;;;5.60;1.38;;;17.00;99.90;;;;;;5057895;28;20100;-53
2021/05/24 10:11:48;;;;;;;2.65;0.70;;;17.00;99.90;;;;;;5059319;28;20448;-51
2021/05/24 10:14:17;;;;;;;5.78;1.00;;;17.00;99.90;;;;;;5057962;28;20029;-52
2021/05/24 10:16:47;;;;;;;4.20;0.60;;;17.00;99.90;;;;;;5062530;28;20056;-54
2021/05/24 10:19:15;;;;;;;3.72;0.77;;;17.00;99.90;;;;;;5055456;28;20107;-54
2021/05/24 10:21:42;;;;;;;2.63;0.68;;;17.00;99.90;;;;;;5055857;28;20032;-53
2021/05/24 10:24:08;;;;;;;3.17;0.95;;;16.90;99.90;;;;;;5060859;28;20170;-55
2021/05/24 10:26:37;;;;;;;2.78;0.85;;;16.90;99.90;;;;;;5063951;28;20055;-53
2021/05/24 10:29:03;;;;;;;2.67;1.40;;;16.90;99.90;;;;;;5062844;28;20494;-52
2021/05/24 10:31:31;;;;;;;2.67;0.82;;;16.90;99.90;;;;;;5061468;28;20727;-52
2021/05/24 10:34:16;;;;;;;4.32;1.00;;;16.90;99.90;;;;;;5060157;28;20541;-53
2021/05/24 10:36:43;;;;;;;3.75;0.75;;;16.90;99.90;;;;;;5058477;28;20029;-56
2021/05/24 10:39:25;;;;;;;2.75;0.80;;;16.90;99.90;;;;;;5056646;28;20139;-54
2021/05/24 10:41:58;;;;;;;2.38;0.90;;;16.90;99.90;;;;;;5057318;28;20048;-53
2021/05/24 10:44:38;;;;;;;1.98;0.80;;;16.90;99.90;;;;;;5057257;28;20039;-50
2021/05/24 10:47:21;;;;;;;7.13;1.60;;;16.90;99.90;;;;;;5057553;28;20426;-54
2021/05/24 10:50:06;;;;;;;3.03;0.77;;;16.90;99.90;;;;;;5055034;28;20032;-54
2021/05/24 10:52:33;;;;;;;;;;;16.90;99.90;;;;;;5065660;28;20028;-51
2021/05/24 10:55:00;;;;;;;1.90;0.70;;;17.00;99.90;;;;;;5061867;28;20405;-52
2021/05/24 10:57:31;;;;;;;4.55;0.90;;;17.00;99.90;;;;;;5061223;28;20133;-51
2021/05/24 10:59:58;;;;;;;0.95;0.50;;;16.90;99.90;;;;;;5058561;28;20379;-54
2021/05/24 11:02:28;;;;;;;1.52;0.60;;;16.80;99.90;;;;;;5062187;28;20072;-51
2021/05/24 11:04:55;;;;;;;4.72;0.50;;;16.70;99.90;;;;;;5058658;28;20064;-51
2021/05/24 11:07:34;;;;;;;1.15;0.52;;;16.60;99.90;;;;;;5054523;28;20110;-55
2021/05/24 11:10:16;;;;;;;4.80;0.50;;;16.50;99.90;;;;;;5042400;28;20352;-53
2021/05/24 11:12:47;;;;;;;3.90;0.50;;;16.50;99.90;;;;;;5058078;28;20046;-52
2021/05/24 11:15:18;;;;;;;2.28;0.70;;;16.40;99.90;;;;;;5059989;28;20103;-51
2021/05/24 11:18:04;;;;;;;2.53;0.60;;;16.40;99.90;;;;;;5061777;28;20028;-51
2021/05/24 11:20:37;;;;;;;0.45;0.40;;;16.40;99.90;;;;;;5060742;28;20028;-53
2021/05/24 11:26:23;;;;;;;0.77;0.40;;;16.40;99.90;;;;;;5064339;28;20520;-52
2021/05/24 11:28:58;;;;;;;1.42;0.40;;;16.40;99.90;;;;;;5064094;28;20044;-54
2021/05/24 11:31:32;;;;;;;1.52;0.50;;;16.40;99.90;;;;;;5060271;28;20036;-52
2021/05/24 11:33:59;;;;;;;2.95;0.52;;;16.40;99.90;;;;;;5059369;28;20170;-53
2021/05/24 11:36:37;;;;;;;2.33;0.95;;;16.30;99.90;;;;;;5060845;28;20025;-55
2021/05/24 11:39:07;;;;;;;0.65;0.50;;;16.30;99.90;;;;;;5065687;28;20021;-52
2021/05/24 11:41:56;;;;;;;1.38;0.40;;;16.30;99.90;;;;;;5064799;28;20021;-51
2021/05/24 11:44:35;;;;;;;0.40;0.40;;;16.30;99.90;;;;;;5061190;28;20036;-51
2021/05/24 11:47:04;;;;;;;1.13;0.50;;;16.20;99.90;;;;;;5059966;28;20056;-51
2021/05/24 11:49:40;;;;;;;1.88;0.43;;;16.10;99.90;;;;;;5064547;28;20039;-52
2021/05/24 11:52:10;;;;;;;14.00;0.57;;;16.10;99.90;;;;;;5060502;28;20025;-50
2021/05/24 11:54:36;;;;;;;3.08;0.60;;;16.00;99.90;;;;;;5066405;28;20039;-53
2021/05/24 11:57:11;;;;;;;1.67;0.60;;;15.80;99.90;;;;;;5054740;28;20107;-56
2021/05/24 11:59:37;;;;;;;2.55;0.45;;;15.80;99.90;;;;;;5057054;28;20020;-56
2021/05/24 12:02:06;;;;;;;3.20;0.30;;;15.80;99.90;;;;;;5059385;28;20493;-54
2021/05/24 12:04:37;;;;;;;1.73;0.40;;;15.80;99.90;;;;;;5062167;28;20029;-55
2021/05/24 12:07:08;;;;;;;0.30;0.30;;;15.90;99.90;;;;;;5059790;28;20055;-54
2021/05/24 12:09:47;;;;;;;1.33;0.40;;;16.00;99.90;;;;;;5064569;28;20048;-53
2021/05/24 12:12:19;;;;;;;0.40;0.28;;;15.90;99.90;;;;;;5058129;28;20552;-55
2021/05/24 12:14:48;;;;;;;1.33;0.38;;;15.90;99.90;;;;;;5060645;28;20024;-53
2021/05/24 12:17:22;;;;;;;0.50;0.38;;;16.00;99.90;;;;;;5060488;28;20057;-53
2021/05/24 12:19:52;;;;;;;2.28;0.50;;;16.00;99.90;;;;;;5060970;28;20753;-53
2021/05/24 12:22:18;;;;;;;1.05;0.47;;;16.10;99.90;;;;;;5060637;28;20037;-55
2021/05/24 12:24:46;;;;;;;3.15;0.30;;;16.20;99.90;;;;;;5043949;28;20043;-53
2021/05/24 12:27:13;;;;;;;0.55;0.43;;;16.30;99.90;;;;;;5063725;28;20169;-55
2021/05/24 12:29:51;;;;;;;1.42;1.00;;;16.30;99.90;;;;;;5065351;28;20493;-52
2021/05/24 12:32:40;;;;;;;0.30;0.30;;;16.30;99.90;;;;;;5058937;28;20035;-51
2021/05/24 12:35:15;;;;;;;1.05;0.47;;;16.20;99.90;;;;;;5062043;28;20372;-51
2021/05/24 12:37:46;;;;;;;1.00;0.20;;;16.20;99.90;;;;;;5064404;28;20526;-51
2021/05/24 12:40:13;;;;;;;0.52;0.32;;;16.10;99.90;;;;;;5058506;28;20064;-51
2021/05/24 12:42:40;;;;;;;0.22;0.22;;;16.20;99.90;;;;;;5056356;28;20080;-53
2021/05/24 12:45:09;;;;;;;0.90;0.30;;;16.30;99.90;;;;;;5052498;28;20036;-54
2021/05/24 12:47:34;;;;;;;0.45;0.30;;;16.20;99.90;;;;;;5063991;28;20070;-51
2021/05/24 12:50:29;;;;;;;0.45;0.30;;;16.30;99.90;;;;;;5065591;28;20037;-50
2021/05/24 12:53:06;;;;;;;0.60;0.30;;;16.20;99.90;;;;;;5045007;28;20076;-52
2021/05/24 12:55:32;;;;;;;1.75;0.40;;;16.00;99.90;;;;;;5054321;28;20033;-53
2021/05/24 12:57:58;;;;;;;0.90;0.40;;;15.90;99.90;;;;;;5057271;28;20023;-52